Latest Weather Observations for Halls Creek

IDD60801

Issued at 7:31 pm CST Saturday 1 October 2016 (issued every 30 minutes, with the page automatically refreshed every 10 minutes)

About weather observations | Map of weather stations | Latest weather observations for NT | Other Formats
Station Details ID: 002012 Name: HALLS CREEK AIRPORT Lat: -18.23 Lon: 127.66 Height: 422.0 m
Data from the previous 72 hours. | See also: Recent months at Halls Creek
Date/Time
CST
Temp
°C
App
Temp
°C
Dew
Point
°C
Rel
Hum
%
Delta-T
°C
Wind Press
QNH
hPa
Press
MSL
hPa
Rain since
9am
mm
Dir  Spd
km/h
Gust
km/h
Spd
kts
Gust
kts
01/07:30pm 30.2 28.1 9.6 27 11.8 SW 11 22 6 12 1009.7 1006.6 0.0
01/07:00pm 31.1 28.1 9.3 26 12.5 SW 15 35 8 19 1009.2 - 0.0
01/06:30pm 33.2 30.9 7.4 20 14.5 WSW 9 22 5 12 1008.6 - 0.0
01/06:00pm 34.1 31.2 6.4 18 15.4 W 11 24 6 13 1008.2 - 0.0
01/05:30pm 34.2 31.6 6.3 17 15.5 WNW 9 22 5 12 1008.2 - 0.0
01/05:00pm 34.2 30.8 5.9 17 15.6 WNW 13 26 7 14 1008.3 - 0.0
01/04:30pm 34.9 32.7 6.1 17 16.0 W 7 15 4 8 1008.4 1005.2 0.0
01/04:00pm 34.1 31.8 5.7 17 15.6 WNW 7 20 4 11 1008.6 - 0.0
01/03:30pm 34.5 30.6 3.4 14 16.5 WNW 13 30 7 16 1009.0 - 0.0
01/03:00pm 34.5 30.6 3.4 14 16.5 WNW 13 24 7 13 1009.4 - 0.0
01/02:30pm 35.4 32.8 4.0 14 16.9 N 7 26 4 14 1009.7 - 0.0
01/02:00pm 34.5 32.1 2.3 13 16.8 S 4 9 2 5 1010.1 - 0.0
01/01:30pm 33.9 31.3 0.7 12 16.8 NNW 4 11 2 6 1010.6 1007.4 0.0
01/01:00pm 33.8 31.1 2.9 14 16.2 SSE 6 13 3 7 1011.0 - 0.0
01/12:30pm 34.4 31.3 1.6 12 16.9 S 7 13 4 7 1011.3 - 0.0
01/12:00pm 32.6 29.2 -0.5 12 16.3 E 7 13 4 7 1011.9 - 0.0
01/11:30am 32.1 29.7 4.5 17 14.7 ESE 6 13 3 7 1012.6 - 0.0
01/11:00am 31.6 29.4 3.4 16 14.7 SSE 4 11 2 6 1013.1 - 0.0
01/10:30am 30.6 28.1 4.8 19 13.7 S 7 15 4 8 1013.2 1010.0 0.0
01/10:00am 30.1 28.0 6.0 22 13.0 S 6 15 3 8 1013.4 - 0.0
01/09:30am 29.0 27.2 5.5 22 12.5 SW 4 7 2 4 1013.4 - 0.0
01/09:00am 28.6 26.9 6.0 24 12.1 S 4 6 2 3 1013.0 - 0.0
01/08:30am 28.0 26.0 4.6 22 12.2 SSE 4 9 2 5 1012.6 - 0.0
01/08:00am 26.8 26.2 7.2 28 10.6 CALM 0 0 0 0 1012.2 - 0.0
01/07:30am 26.4 25.4 7.4 30 10.3 S 2 4 1 2 1011.9 1008.8 0.0
01/07:00am 26.0 23.7 5.0 26 10.9 SE 6 9 3 5 1011.5 - 0.0
01/06:30am 25.8 24.3 4.9 26 10.8 NNW 2 4 1 2 1011.5 - 0.0
01/06:00am 25.8 24.5 6.1 28 10.4 SE 2 4 1 2 1011.1 - 0.0
01/05:30am 25.9 23.6 2.5 22 11.6 SSE 4 6 2 3 1010.6 - 0.0
01/05:00am 25.4 22.7 2.6 22 11.3 S 6 7 3 4 1010.4 - 0.0
01/04:30am 25.7 23.9 3.2 23 11.3 SW 2 7 1 4 1010.5 1007.3 0.0
01/04:00am 26.1 23.7 1.9 20 11.9 SW 4 9 2 5 1010.6 - 0.0
01/03:30am 26.8 24.6 0.8 18 12.6 SSW 2 4 1 2 1010.6 - 0.0
01/03:00am 27.9 25.2 0.5 17 13.3 WNW 4 6 2 3 1010.6 - 0.0
01/02:30am 28.7 26.6 1.5 17 13.5 NE 2 6 1 3 1010.7 - 0.0
01/02:00am 29.4 25.9 -2.8 12 14.9 NE 6 13 3 7 1010.6 - 0.0
01/01:30am 29.2 26.1 -0.1 15 14.2 SSE 6 11 3 6 1010.1 1006.9 0.0
01/01:00am 29.6 26.6 0.5 15 14.3 S 6 11 3 6 1010.3 - 0.0
01/12:30am 30.0 27.0 1.0 15 14.4 S 6 15 3 8 1010.4 - 0.0
01/12:00am 30.5 27.5 0.6 14 14.8 ESE 6 15 3 8 1010.6 - 0.0
 
Date/Time
CST
Temp
°C
App
Temp
°C
Dew
Point
°C
Rel
Hum
%
Delta-T
°C
Wind Press
QNH
hPa
Press
MSL
hPa
Rain since
9am
mm
Dir  Spd
km/h
Gust
km/h
Spd
kts
Gust
kts
30/11:30pm 30.0 27.9 5.6 21 13.1 S 6 11 3 6 1010.6 - 0.0
30/11:00pm 30.0 28.9 7.1 23 12.6 SW 2 2 1 1 1010.2 - 0.0
30/10:30pm 30.3 28.4 4.9 20 13.5 WSW 4 6 2 3 1010.1 1007.5 0.0
30/10:00pm 30.5 29.6 5.9 21 13.3 CALM 0 4 0 2 1009.6 - 0.0
30/09:30pm 31.2 29.6 4.7 18 14.1 SSW 2 2 1 1 1009.2 - 0.0
30/09:00pm 31.3 29.8 4.9 19 14.1 SE 2 2 1 1 1008.8 - 0.0
30/08:30pm 30.3 29.4 7.6 24 12.6 E 2 6 1 3 1008.6 - 0.0
30/08:00pm 31.0 30.6 8.3 24 12.8 CALM 0 2 0 1 1008.2 - 0.0
30/07:30pm 31.9 31.0 7.7 22 13.6 NNE 2 2 1 1 1007.9 1005.3 0.0
30/07:00pm 33.4 32.4 7.2 19 14.7 NNW 2 2 1 1 1007.7 - 0.0
30/06:30pm 34.8 31.7 1.1 12 17.2 N 7 17 4 9 1007.4 - 0.0
30/06:00pm 35.9 33.4 1.8 12 17.8 SSW 4 9 2 5 1007.1 - 0.0
30/05:30pm 35.5 32.2 -1.1 10 18.2 NNW 6 11 3 6 1007.2 - 0.0
30/05:00pm 36.8 33.5 -1.1 9 19.0 WSW 6 17 3 9 1007.1 - 0.0
30/04:30pm 36.4 33.0 -0.8 9 18.7 NW 7 17 4 9 1007.4 1004.9 0.0
30/04:00pm 36.0 31.7 -1.5 9 18.5 NW 11 24 6 13 1007.8 - 0.0
30/03:30pm 36.2 32.7 -2.5 8 18.9 NNE 6 13 3 7 1008.0 - 0.0
30/03:00pm 35.9 32.3 -2.4 8 18.7 NE 7 19 4 10 1008.4 - 0.0
30/02:30pm 35.5 32.0 -1.1 10 18.2 ENE 7 17 4 9 1009.0 - 0.0
30/02:00pm 34.9 31.6 -1.5 10 17.9 NE 6 15 3 8 1009.3 - 0.0
30/01:30pm 36.0 32.8 -3.2 8 18.9 E 4 11 2 6 1010.1 1007.5 0.0
30/01:00pm 35.0 30.2 -9.9 5 19.3 ESE 9 22 5 12 1010.7 - 0.0
30/12:30pm 33.1 29.1 -7.1 7 17.8 NNE 6 17 3 9 1011.5 - 0.0
30/12:00pm 32.3 27.3 -14.4 4 18.2 E 9 24 5 13 1012.1 - 0.0
30/11:30am 32.0 26.8 -17.8 3 18.3 E 9 19 5 10 1012.9 - 0.0
30/11:00am 30.2 24.9 -20.9 3 17.5 ENE 9 22 5 12 1013.3 - 0.0
30/10:30am 28.9 23.2 -21.1 3 16.8 E 11 22 6 12 1013.6 1011.1 0.2
30/10:00am 28.1 22.8 -20.0 3 16.3 E 9 19 5 10 1013.8 - 0.2
30/09:30am 26.7 21.4 -19.2 4 15.5 E 9 19 5 10 1014.0 - 0.2
30/09:00am 26.0 20.8 -17.5 5 15.0 ESE 9 24 5 13 1013.9 - 0.2
30/08:30am 23.6 18.9 -15.6 6 13.6 ESE 7 11 4 6 - - 0.2
30/08:00am 22.5 18.3 -10.2 10 12.4 ESE 6 7 3 4 - - 0.2
30/07:30am 22.2 18.2 -12.1 9 12.5 ESE 4 7 2 4 - - 0.2
30/07:00am 21.0 17.1 -11.4 10 11.8 E 4 6 2 3 - - 0.2
30/06:30am 21.3 17.7 -11.8 10 12.0 NE 2 6 1 3 - - 0.2
30/06:00am 21.6 17.7 -11.4 10 12.1 E 4 7 2 4 - - 0.2
30/05:30am 21.1 17.2 -11.0 10 11.8 ESE 4 7 2 4 - - 0.2
30/05:00am 21.3 18.1 -7.7 13 11.4 E 2 6 1 3 - - 0.2
30/04:30am 21.3 17.6 -8.9 12 11.6 ESE 4 6 2 3 - - 0.2
30/04:00am 22.3 17.8 -15.2 7 12.9 ESE 6 9 3 5 - - 0.2
30/03:30am 23.0 18.3 -15.7 6 13.3 SE 7 13 4 7 - - 0.2
30/03:00am 22.7 18.3 -12.4 8 12.8 SE 6 15 3 8 1011.4 - 0.2
30/02:30am 22.6 19.1 -6.7 13 11.9 SSE 4 6 2 3 1011.6 - 0.2
30/02:00am 22.3 19.6 -2.1 19 10.8 SE 2 6 1 3 1011.6 - 0.2
30/01:30am 23.3 20.5 -3.7 16 11.7 SE 2 6 1 3 1011.8 1009.3 0.2
30/01:00am 24.8 20.5 -8.8 10 13.4 SSE 7 13 4 7 1011.7 - 0.2
30/12:30am 25.0 21.3 -4.1 14 12.7 SSE 6 13 3 7 1011.9 - 0.2
30/12:00am 25.9 22.0 -4.7 13 13.3 SSE 7 17 4 9 1012.1 - 0.2
 
Date/Time
CST
Temp
°C
App
Temp
°C
Dew
Point
°C
Rel
Hum
%
Delta-T
°C
Wind Press
QNH
hPa
Press
MSL
hPa
Rain since
9am
mm
Dir  Spd
km/h
Gust
km/h
Spd
kts
Gust
kts
29/11:30pm 26.4 22.7 -3.3 14 13.3 SSE 7 15 4 8 1012.3 - 0.2
29/11:00pm 26.6 23.1 -2.8 14 13.3 SSE 6 11 3 6 1012.4 - 0.2
29/10:30pm 26.5 22.8 -3.0 14 13.3 SSE 7 13 4 7 1012.6 1010.0 0.2
29/10:00pm 27.1 23.4 -3.3 13 13.7 SSE 7 15 4 8 1012.4 - 0.2
29/09:30pm 27.5 23.8 -2.7 13 13.8 SSE 7 17 4 9 1012.3 - 0.2
29/09:00pm 28.2 24.1 -3.2 12 14.3 SSE 9 15 5 8 1012.0 - 0.2
29/08:30pm 28.5 24.5 -1.9 13 14.2 SSE 9 19 5 10 1011.8 - 0.2
29/08:00pm 28.8 25.3 -1.6 13 14.3 SSE 7 13 4 7 1011.3 - 0.2
29/07:30pm 29.2 26.1 -0.1 15 14.2 SE 6 11 3 6 1010.9 1008.3 0.2
29/07:00pm 30.0 27.0 0.6 15 14.5 S 6 9 3 5 1010.7 - 0.2
29/06:30pm 31.5 27.6 -1.2 12 15.8 S 9 17 5 9 1010.4 - 0.2
29/06:00pm 32.6 28.7 -1.4 11 16.5 SSE 9 20 5 11 1010.2 - 0.2
29/05:30pm 33.4 29.9 -1.5 10 17.0 SSE 7 17 4 9 1010.1 - 0.2
29/05:00pm 33.2 30.2 1.1 13 16.3 SSW 6 15 3 8 1010.1 - 0.2
29/04:30pm 33.6 30.4 -0.5 11 16.9 ESE 6 15 3 8 1010.1 1007.5 0.0
29/04:00pm 32.9 30.5 -0.1 12 16.4 N 2 7 1 4 1010.2 - 0.0
29/03:30pm 34.3 30.8 -2.8 9 17.8 S 6 17 3 9 1010.4 - 0.0
29/03:00pm 33.5 29.7 -5.6 8 17.8 ESE 6 19 3 10 1010.9 - 0.0
29/02:30pm 32.5 28.0 -6.8 7 17.4 ESE 9 22 5 12 1011.3 - 0.0
29/02:00pm 31.8 27.3 -6.9 8 17.0 SE 9 19 5 10 1012.1 - 0.0
29/01:30pm 31.4 26.6 -10.0 6 17.2 SE 9 24 5 13 1012.6 1010.0 0.0
29/01:00pm 31.7 26.8 -11.9 5 17.6 SSE 9 20 5 11 1013.2 - 0.0
29/12:30pm 29.9 24.7 -10.4 6 16.4 SE 11 22 6 12 1013.9 - 0.0
29/12:00pm 30.0 24.4 -11.7 6 16.6 SE 13 24 7 13 1014.5 - 0.0
29/11:30am 29.3 23.2 -13.4 5 16.4 SE 15 28 8 15 1014.9 - 0.0
29/11:00am 28.1 22.4 -12.1 6 15.6 SE 13 24 7 13 1015.2 - 0.0
29/10:30am 26.9 20.9 -10.9 7 14.8 SE 15 30 8 16 1015.3 1012.7 0.0
29/10:00am 27.5 21.9 -10.7 7 15.1 SE 13 28 7 15 1015.3 - 0.0
29/09:30am 26.4 19.7 -9.9 8 14.4 SE 19 28 10 15 1015.3 - 0.0
29/09:00am 26.6 20.8 -8.4 9 14.3 SE 15 30 8 16 1014.8 - 0.0
29/08:30am 24.9 19.2 -7.9 11 13.3 SE 15 26 8 14 1014.5 - 0.0
29/08:00am 24.8 19.6 -2.8 16 12.3 SSE 15 26 8 14 1014.1 - 0.0
29/07:30am 24.7 20.1 -1.3 18 11.9 SSE 13 28 7 15 1013.6 1011.1 0.0
29/07:00am 24.7 21.5 3.2 24 10.7 SE 9 17 5 9 1013.4 - 0.0
29/06:30am 24.8 22.2 5.9 29 9.9 SSE 9 17 5 9 1012.8 - 0.0
29/06:00am 25.0 22.9 8.4 34 9.1 S 9 22 5 12 1012.2 - 0.0
29/05:30am 25.0 23.6 11.0 41 8.0 S 9 19 5 10 1012.1 - 0.0
29/05:00am 25.3 23.8 10.5 39 8.4 S 9 22 5 12 1011.6 - 0.0
29/04:30am 25.0 25.4 12.4 45 7.4 WSW 2 6 1 3 1011.1 1008.5 0.0
29/04:00am 25.3 25.6 12.3 44 7.6 SW 2 4 1 2 1010.9 - 0.0
29/03:30am 25.9 25.3 11.6 40 8.3 S 6 11 3 6 1011.0 - 0.0
29/03:00am 26.3 25.3 11.0 38 8.8 S 7 17 4 9 1011.1 - 0.0
29/02:30am 26.6 25.5 10.8 37 9.1 SSW 7 19 4 10 1011.5 - 0.0
29/02:00am 26.4 25.7 12.1 41 8.4 SSW 7 17 4 9 1011.7 - 0.0
29/01:30am 26.5 26.1 12.4 41 8.3 SW 6 15 3 8 1012.0 1009.5 0.0
29/01:00am 26.6 26.7 12.6 42 8.3 SW 4 7 2 4 1012.6 - 0.0
29/12:30am 26.9 27.1 13.0 42 8.3 SSW 4 9 2 5 1012.7 - 0.0
29/12:00am 27.3 26.8 12.7 40 8.7 SSW 7 17 4 9 1012.9 - 0.0
 
Date/Time
CST
Temp
°C
App
Temp
°C
Dew
Point
°C
Rel
Hum
%
Delta-T
°C
Wind Press
QNH
hPa
Press
MSL
hPa
Rain since
9am
mm
Dir  Spd
km/h
Gust
km/h
Spd
kts
Gust
kts
28/11:30pm 27.4 26.5 12.6 40 8.8 SSW 9 19 5 10 1013.0 - 0.0
28/11:00pm 27.5 27.1 12.9 40 8.7 SSW 7 19 4 10 1013.2 - 0.0
28/10:30pm 27.6 27.1 13.9 43 8.3 S 9 24 5 13 1013.3 1010.7 0.0
28/10:00pm 27.5 26.9 14.6 45 7.9 S 11 20 6 11 1013.2 - 0.0
28/09:30pm 27.9 27.3 14.5 44 8.2 SSW 11 26 6 14 1013.1 - 0.0

Other Formats:

Comma delimited format used in spreadsheet applications
http://www.bom.gov.au/fwo/IDD60801/IDD60801.94212.axf

JavaScript Object Notation format (JSON) in row-major order
http://www.bom.gov.au/fwo/IDD60801/IDD60801.94212.json